»·PEaware :: N513KQ KLAX-KSAN

N513KQ :: KLAX-KSAN

FLIGHT INFORMATION

Flight Status: Arrived
Operator: Privately registered:
United States
More flights under this callsign
Pilot: Stefan D. (14429)
Aircraft: DORNIER 228
(D228)
More flights by this aircraft type
Origin: KLAX Los Angeles Intl
United States
Destination: KSAN San Diego Intl-Lindbergh
United States
More flights between these airports :: More routes between these airports
Route: +
File this flight plan on PilotEdge
Remarks: CAT-11
Altitude:
(Current/Filed)
3,500ft
Speed:
(Current/Filed)
160kts
Departed: 13-Mar-18 02:53 PM
Arrived: 13-Mar-18 03:31 PM
Distance/Time
Traveled:
95nm/0:38
Distance/Time
To Go:
Arrived

Flight Plot

Page will automatically refresh every two minutes.


Map Options




Map Legend


Flown Route
Filed Route
Departure Airport
Arrival Airport
Navaid (VOR, NDB)
Fix

Horizontal Profiles

Position Reports

Time Latitude Longitude Heading Altitude Ground
Speed
13-Mar-18 14:45 33.932721 -118.397655 304 110ft 0kts
13-Mar-18 14:46 33.932721 -118.397655 304 110ft 0kts
13-Mar-18 14:47 33.932721 -118.397655 304 110ft 0kts
13-Mar-18 14:48 33.932721 -118.397655 304 110ft 0kts
13-Mar-18 14:49 33.932721 -118.397655 304 110ft 0kts
13-Mar-18 14:50 33.934670 -118.396782 84 110ft 24kts
13-Mar-18 14:51 33.935343 -118.393675 354 110ft 0kts
13-Mar-18 14:52 33.934922 -118.409062 266 363ft 123kts
13-Mar-18 14:53 33.932818 -118.454965 266 1399ft 144kts
13-Mar-18 14:54 33.931189 -118.493627 266 2142ft 167kts
13-Mar-18 14:55 33.928832 -118.554345 266 2512ft 194kts
13-Mar-18 14:56 33.926393 -118.620021 266 2509ft 197kts
13-Mar-18 14:57 33.911166 -118.676373 190 2504ft 196kts
13-Mar-18 14:58 33.856901 -118.667831 172 2511ft 198kts
13-Mar-18 14:59 33.807350 -118.644684 129 2520ft 205kts
13-Mar-18 15:00 33.770968 -118.591534 132 2516ft 208kts
13-Mar-18 15:01 33.742465 -118.551997 133 2511ft 210kts
13-Mar-18 15:02 33.697663 -118.490323 133 2497ft 209kts
13-Mar-18 15:03 33.659384 -118.437772 133 2491ft 209kts
13-Mar-18 15:04 33.627610 -118.394208 133 2496ft 209kts
13-Mar-18 15:05 33.584082 -118.334617 133 2508ft 210kts
13-Mar-18 15:06 33.545837 -118.282335 133 2493ft 209kts
13-Mar-18 15:07 33.514105 -118.239020 133 2479ft 206kts
13-Mar-18 15:08 33.476569 -118.187853 133 2475ft 204kts
13-Mar-18 15:09 33.433248 -118.128891 133 2484ft 201kts
13-Mar-18 15:10 33.402080 -118.086557 133 2504ft 205kts
13-Mar-18 15:11 33.364496 -118.035515 133 2506ft 206kts
13-Mar-18 15:12 33.326617 -117.984166 133 2507ft 207kts
13-Mar-18 15:13 33.288394 -117.932430 133 2507ft 208kts
13-Mar-18 15:14 33.250145 -117.880731 133 2503ft 209kts
13-Mar-18 15:15 33.211306 -117.828316 132 2176ft 209kts
13-Mar-18 15:16 33.173069 -117.776779 132 1679ft 207kts
13-Mar-18 15:17 33.135049 -117.725608 132 1483ft 205kts
13-Mar-18 15:18 33.097102 -117.674610 132 1482ft 206kts
13-Mar-18 15:19 33.058909 -117.623355 132 1482ft 206kts
13-Mar-18 15:20 33.020876 -117.572392 132 1481ft 206kts
13-Mar-18 15:21 32.982780 -117.521412 133 1479ft 205kts
13-Mar-18 15:22 32.945172 -117.471157 133 1477ft 203kts
13-Mar-18 15:23 32.907602 -117.421022 133 1475ft 204kts
13-Mar-18 15:24 32.871679 -117.373142 133 1468ft 179kts
13-Mar-18 15:25 32.839630 -117.330517 133 1470ft 168kts
13-Mar-18 15:26 32.809087 -117.289916 132 1474ft 167kts
13-Mar-18 15:27 32.776487 -117.246593 132 1246ft 186kts
13-Mar-18 15:28 32.751073 -117.199428 100 976ft 170kts
13-Mar-18 15:29 32.733405 -117.165180 212 802ft 114kts
13-Mar-18 15:30 32.732931 -117.186955 286 22ft 28kts
13-Mar-18 15:31 32.734011 -117.188071 20 22ft 0kts
13-Mar-18 15:32 32.733691 -117.185473 105 22ft 28kts
13-Mar-18 15:33 32.734180 -117.179710 168 22ft 3kts
13-Mar-18 15:34 32.734170 -117.179704 161 22ft 0kts
13-Mar-18 15:35 32.734170 -117.179704 161 22ft 0kts

Navigation Log

Ident Type
1. KLAX Airport
2. KSAN Airport